Time,TemperatureF,DewpointF,PressureIn,WindDirection,WindDirectionDegrees,WindSpeedMPH,WindSpeedGustMPH,Humidity,HourlyPrecipIn,Conditions,Clouds,dailyrainin,SolarRadiationWatts/m^2,SoftwareType,DateUTC
2013-02-24 00:01:00,25.0,19.0,-100.00,NNE,13,2.0,3.0,78,0.00,,,0.00,0.000000,,2013-02-24 06:01:00,
2013-02-24 00:21:00,21.0,17.0,-100.00,WNW,293,1.0,2.0,85,0.00,,,0.00,0.000000,,2013-02-24 06:21:00,
2013-02-24 00:32:00,21.0,17.0,-100.00,WNW,293,1.0,2.0,85,0.00,,,0.00,0.000000,,2013-02-24 06:32:00,
2013-02-24 00:42:00,21.0,17.0,-100.00,WNW,293,1.0,2.0,85,0.00,,,0.00,0.000000,,2013-02-24 06:42:00,
2013-02-24 00:52:00,21.0,17.0,-100.00,WNW,293,1.0,2.0,85,0.00,,,0.00,0.000000,,2013-02-24 06:52:00,
2013-02-24 01:01:00,21.0,17.0,-100.00,WNW,293,1.0,2.0,85,0.00,,,0.00,0.000000,,2013-02-24 07:01:00,
2013-02-24 01:32:00,16.0,13.0,-100.00,NW,325,1.0,4.0,88,0.00,,,0.00,0.000000,,2013-02-24 07:32:00,
2013-02-24 01:42:00,16.0,13.0,-100.00,NW,325,1.0,4.0,88,0.00,,,0.00,0.000000,,2013-02-24 07:42:00,
2013-02-24 01:52:00,16.0,13.0,-100.00,NW,325,1.0,4.0,88,0.00,,,0.00,0.000000,,2013-02-24 07:52:00,
2013-02-24 02:01:00,16.0,13.0,-100.00,NW,325,1.0,4.0,88,0.00,,,0.00,0.000000,,2013-02-24 08:01:00,
2013-02-24 02:22:00,12.0,9.0,-100.00,WNW,282,1.0,5.0,87,0.00,,,0.00,0.000000,,2013-02-24 08:22:00,
2013-02-24 02:32:00,12.0,9.0,-100.00,WNW,282,1.0,5.0,87,0.00,,,0.00,0.000000,,2013-02-24 08:32:00,
2013-02-24 02:42:00,12.0,9.0,-100.00,WNW,282,1.0,5.0,87,0.00,,,0.00,0.000000,,2013-02-24 08:42:00,
2013-02-24 02:54:00,12.0,9.0,-100.00,WNW,282,1.0,5.0,87,0.00,,,0.00,0.000000,,2013-02-24 08:54:00,
2013-02-24 03:01:00,12.0,9.0,-100.00,WNW,282,1.0,5.0,87,0.00,,,0.00,0.000000,,2013-02-24 09:01:00,
2013-02-24 03:22:00,10.0,7.0,-100.00,East,81,1.0,3.0,87,0.00,,,-99.99,0.000000,,2013-02-24 09:22:00,
2013-02-24 03:32:00,10.0,7.0,-100.00,East,81,1.0,3.0,87,0.00,,,-99.99,0.000000,,2013-02-24 09:32:00,
2013-02-24 03:42:00,10.0,7.0,-100.00,East,81,1.0,3.0,87,0.00,,,-99.99,0.000000,,2013-02-24 09:42:00,
2013-02-24 03:52:00,10.0,7.0,-100.00,East,81,1.0,3.0,87,0.00,,,-99.99,0.000000,,2013-02-24 09:52:00,
2013-02-24 04:01:00,10.0,7.0,-100.00,East,81,1.0,3.0,87,0.00,,,-99.99,0.000000,,2013-02-24 10:01:00,
2013-02-24 04:22:00,6.0,2.0,-100.00,WSW,240,2.0,2.0,84,0.00,,,0.00,0.000000,,2013-02-24 10:22:00,
2013-02-24 04:32:00,6.0,2.0,-100.00,WSW,240,2.0,2.0,84,0.00,,,0.00,0.000000,,2013-02-24 10:32:00,
2013-02-24 04:42:00,6.0,2.0,-100.00,WSW,240,2.0,2.0,84,0.00,,,0.00,0.000000,,2013-02-24 10:42:00,
2013-02-24 04:52:00,6.0,2.0,-100.00,WSW,240,2.0,2.0,84,0.00,,,0.00,0.000000,,2013-02-24 10:52:00,
2013-02-24 05:01:00,6.0,2.0,-100.00,WSW,240,2.0,2.0,84,0.00,,,0.00,0.000000,,2013-02-24 11:01:00,
2013-02-24 05:32:00,4.0,0.0,-100.00,SSW,213,1.0,3.0,83,0.00,,,0.00,0.000000,,2013-02-24 11:32:00,
2013-02-24 05:42:00,4.0,0.0,-100.00,SSW,213,1.0,3.0,83,0.00,,,0.00,0.000000,,2013-02-24 11:42:00,
2013-02-24 05:53:00,4.0,0.0,-100.00,SSW,213,1.0,3.0,83,0.00,,,0.00,0.000000,,2013-02-24 11:53:00,
2013-02-24 06:01:00,4.0,0.0,-100.00,SSW,213,1.0,3.0,83,0.00,,,0.00,0.000000,,2013-02-24 12:01:00,
2013-02-24 06:04:00,1.0,-3.0,-100.00,SW,220,0.0,4.0,81,0.00,,,0.00,0.000000,,2013-02-24 12:04:00,
2013-02-24 06:22:00,1.0,-3.0,-100.00,SW,220,0.0,4.0,81,0.00,,,0.00,0.000000,,2013-02-24 12:22:00,
2013-02-24 06:46:00,1.0,-3.0,-100.00,SW,220,0.0,4.0,81,0.00,,,0.00,0.000000,,2013-02-24 12:46:00,
2013-02-24 06:56:00,1.0,-3.0,-100.00,SW,220,0.0,4.0,81,0.00,,,0.00,0.000000,,2013-02-24 12:56:00,
2013-02-24 07:35:00,1.0,-4.0,-100.00,SE,143,1.0,2.0,79,0.00,,,0.00,2.000000,,2013-02-24 13:35:00,
2013-02-24 07:45:00,1.0,-4.0,-100.00,SE,143,1.0,2.0,79,0.00,,,0.00,2.000000,,2013-02-24 13:45:00,
2013-02-24 07:55:00,1.0,-4.0,-100.00,SE,143,1.0,2.0,79,0.00,,,0.00,2.000000,,2013-02-24 13:55:00,
2013-02-24 08:03:00,1.0,-4.0,-100.00,SE,143,1.0,2.0,79,0.00,,,0.00,2.000000,,2013-02-24 14:03:00,
2013-02-24 08:25:00,11.0,5.0,-100.00,WSW,238,1.0,2.0,76,0.00,,,0.00,69.000000,,2013-02-24 14:25:00,
2013-02-24 08:34:00,11.0,5.0,-100.00,WSW,238,1.0,2.0,76,0.00,,,0.00,69.000000,,2013-02-24 14:34:00,
2013-02-24 08:54:00,11.0,5.0,-100.00,WSW,238,1.0,2.0,76,0.00,,,0.00,69.000000,,2013-02-24 14:54:00,
2013-02-24 09:02:00,11.0,5.0,-100.00,WSW,238,1.0,2.0,76,0.00,,,0.00,69.000000,,2013-02-24 15:02:00,
2013-02-24 09:32:00,19.0,13.0,-100.00,SSE,163,1.0,2.0,76,0.00,,,0.00,205.000000,,2013-02-24 15:32:00,
2013-02-24 09:42:00,19.0,13.0,-100.00,SSE,163,1.0,2.0,76,0.00,,,0.00,205.000000,,2013-02-24 15:42:00,
2013-02-24 09:53:00,19.0,13.0,-100.00,SSE,163,1.0,2.0,76,0.00,,,0.00,205.000000,,2013-02-24 15:53:00,
2013-02-24 10:01:00,19.0,13.0,-100.00,SSE,163,1.0,2.0,76,0.00,,,0.00,205.000000,,2013-02-24 16:01:00,
2013-02-24 10:32:00,31.0,19.0,-100.00,East,97,1.0,3.0,61,0.00,,,0.00,403.000000,,2013-02-24 16:32:00,
2013-02-24 11:01:00,31.0,19.0,-100.00,East,97,1.0,3.0,61,0.00,,,0.00,403.000000,,2013-02-24 17:01:00,
2013-02-24 11:22:00,37.0,21.0,-100.00,WSW,247,3.0,6.0,51,0.00,,,0.00,538.000000,,2013-02-24 17:22:00,
2013-02-24 11:32:00,37.0,21.0,-100.00,WSW,247,3.0,6.0,51,0.00,,,0.00,538.000000,,2013-02-24 17:32:00,
2013-02-24 12:01:00,37.0,21.0,-100.00,WSW,247,3.0,6.0,51,0.00,,,0.00,538.000000,,2013-02-24 18:01:00,
2013-02-24 12:22:00,40.0,20.0,-100.00,WSW,243,3.0,8.0,45,0.00,,,0.00,623.000000,,2013-02-24 18:22:00,
2013-02-24 12:32:00,40.0,20.0,-100.00,WSW,243,3.0,8.0,45,0.00,,,0.00,623.000000,,2013-02-24 18:32:00,
2013-02-24 12:42:00,40.0,20.0,-100.00,WSW,243,3.0,8.0,45,0.00,,,0.00,623.000000,,2013-02-24 18:42:00,
2013-02-24 12:52:00,40.0,20.0,-100.00,WSW,243,3.0,8.0,45,0.00,,,0.00,623.000000,,2013-02-24 18:52:00,
2013-02-24 13:01:00,40.0,20.0,-100.00,WSW,243,3.0,8.0,45,0.00,,,0.00,623.000000,,2013-02-24 19:01:00,
2013-02-24 13:22:00,40.0,19.0,-100.00,SE,145,4.0,8.0,42,0.00,,,0.00,647.000000,,2013-02-24 19:22:00,
2013-02-24 13:32:00,40.0,19.0,-100.00,SE,145,4.0,8.0,42,0.00,,,0.00,647.000000,,2013-02-24 19:32:00,
2013-02-24 13:42:00,40.0,19.0,-100.00,SE,145,4.0,8.0,42,0.00,,,0.00,647.000000,,2013-02-24 19:42:00,
2013-02-24 13:52:00,40.0,19.0,-100.00,SE,145,4.0,8.0,42,0.00,,,0.00,647.000000,,2013-02-24 19:52:00,
2013-02-24 14:02:00,40.0,19.0,-100.00,SE,145,4.0,8.0,42,0.00,,,0.00,647.000000,,2013-02-24 20:02:00,
2013-02-24 14:32:00,43.0,20.0,-100.00,SW,222,5.0,10.0,40,0.00,,,0.00,606.000000,,2013-02-24 20:32:00,
2013-02-24 14:42:00,43.0,20.0,-100.00,SW,222,5.0,10.0,40,0.00,,,0.00,606.000000,,2013-02-24 20:42:00,
2013-02-24 14:52:00,43.0,20.0,-100.00,SW,222,5.0,10.0,40,0.00,,,0.00,606.000000,,2013-02-24 20:52:00,
2013-02-24 15:01:00,43.0,20.0,-100.00,SW,222,5.0,10.0,40,0.00,,,0.00,606.000000,,2013-02-24 21:01:00,
2013-02-24 15:32:00,42.0,18.0,-100.00,SSW,199,7.0,11.0,38,0.00,,,0.00,490.000000,,2013-02-24 21:32:00,
2013-02-24 15:42:00,42.0,18.0,-100.00,SSW,199,7.0,11.0,38,0.00,,,0.00,490.000000,,2013-02-24 21:42:00,
2013-02-24 15:52:00,42.0,18.0,-100.00,SSW,199,7.0,11.0,38,0.00,,,0.00,490.000000,,2013-02-24 21:52:00,
2013-02-24 16:01:00,42.0,18.0,-100.00,SSW,199,7.0,11.0,38,0.00,,,0.00,490.000000,,2013-02-24 22:01:00,
2013-02-24 16:32:00,41.0,17.0,-100.00,West,262,6.0,10.0,37,0.00,,,0.00,343.000000,,2013-02-24 22:32:00,
2013-02-24 16:42:00,41.0,17.0,-100.00,West,262,6.0,10.0,37,0.00,,,0.00,343.000000,,2013-02-24 22:42:00,
2013-02-24 16:52:00,41.0,17.0,-100.00,West,262,6.0,10.0,37,0.00,,,0.00,343.000000,,2013-02-24 22:52:00,
2013-02-24 17:02:00,41.0,17.0,-100.00,West,262,6.0,10.0,37,0.00,,,0.00,343.000000,,2013-02-24 23:02:00,
2013-02-24 17:22:00,38.0,18.0,-100.00,WNW,300,4.0,8.0,43,0.00,,,0.00,167.000000,,2013-02-24 23:22:00,
2013-02-24 17:32:00,38.0,18.0,-100.00,WNW,300,4.0,8.0,43,0.00,,,0.00,167.000000,,2013-02-24 23:32:00,
2013-02-24 17:42:00,38.0,18.0,-100.00,WNW,300,4.0,8.0,43,0.00,,,0.00,167.000000,,2013-02-24 23:42:00,
2013-02-24 17:52:00,38.0,18.0,-100.00,WNW,300,4.0,8.0,43,0.00,,,0.00,167.000000,,2013-02-24 23:52:00,
2013-02-24 18:01:00,38.0,18.0,-100.00,WNW,300,4.0,8.0,43,0.00,,,0.00,167.000000,,2013-02-25 00:01:00,
2013-02-24 18:32:00,30.0,15.0,-100.00,West,269,3.0,5.0,54,0.00,,,0.00,20.000000,,2013-02-25 00:32:00,
2013-02-24 18:42:00,30.0,15.0,-100.00,West,269,3.0,5.0,54,0.00,,,0.00,20.000000,,2013-02-25 00:42:00,
2013-02-24 18:52:00,30.0,15.0,-100.00,West,269,3.0,5.0,54,0.00,,,0.00,20.000000,,2013-02-25 00:52:00,
2013-02-24 19:01:00,30.0,15.0,-100.00,West,269,3.0,5.0,54,0.00,,,0.00,20.000000,,2013-02-25 01:01:00,
2013-02-24 19:32:00,25.0,17.0,-100.00,SW,228,2.0,3.0,71,0.00,,,0.00,0.000000,,2013-02-25 01:32:00,
2013-02-24 19:42:00,25.0,17.0,-100.00,SW,228,2.0,3.0,71,0.00,,,0.00,0.000000,,2013-02-25 01:42:00,
2013-02-24 19:52:00,25.0,17.0,-100.00,SW,228,2.0,3.0,71,0.00,,,0.00,0.000000,,2013-02-25 01:52:00,
2013-02-24 20:01:00,25.0,17.0,-100.00,SW,228,2.0,3.0,71,0.00,,,0.00,0.000000,,2013-02-25 02:01:00,
2013-02-24 20:32:00,21.0,15.0,-100.00,West,261,2.0,3.0,76,0.00,,,0.00,0.000000,,2013-02-25 02:32:00,
2013-02-24 20:42:00,21.0,15.0,-100.00,West,261,2.0,3.0,76,0.00,,,0.00,0.000000,,2013-02-25 02:42:00,
2013-02-24 20:52:00,21.0,15.0,-100.00,West,261,2.0,3.0,76,0.00,,,0.00,0.000000,,2013-02-25 02:52:00,
2013-02-24 21:01:00,21.0,15.0,-100.00,West,261,2.0,3.0,76,0.00,,,0.00,0.000000,,2013-02-25 03:01:00,
2013-02-24 21:21:00,18.0,13.0,-100.00,SSW,211,2.0,5.0,79,0.00,,,0.00,0.000000,,2013-02-25 03:21:00,
2013-02-24 21:32:00,18.0,13.0,-100.00,SSW,211,2.0,5.0,79,0.00,,,0.00,0.000000,,2013-02-25 03:32:00,
2013-02-24 21:42:00,18.0,13.0,-100.00,SSW,211,2.0,5.0,79,0.00,,,0.00,0.000000,,2013-02-25 03:42:00,
2013-02-24 21:52:00,18.0,13.0,-100.00,SSW,211,2.0,5.0,79,0.00,,,0.00,0.000000,,2013-02-25 03:52:00,
2013-02-24 22:01:00,18.0,13.0,-100.00,SSW,211,2.0,5.0,79,0.00,,,0.00,0.000000,,2013-02-25 04:01:00,
2013-02-24 22:22:00,16.0,11.0,-100.00,SSE,155,2.0,2.0,81,0.00,,,0.00,0.000000,,2013-02-25 04:22:00,
2013-02-24 22:32:00,16.0,11.0,-100.00,SSE,155,2.0,2.0,81,0.00,,,0.00,0.000000,,2013-02-25 04:32:00,
2013-02-24 22:42:00,16.0,11.0,-100.00,SSE,155,2.0,2.0,81,0.00,,,0.00,0.000000,,2013-02-25 04:42:00,
2013-02-24 22:52:00,16.0,11.0,-100.00,SSE,155,2.0,2.0,81,0.00,,,0.00,0.000000,,2013-02-25 04:52:00,
2013-02-24 23:01:00,16.0,11.0,-100.00,SSE,155,2.0,2.0,81,0.00,,,0.00,0.000000,,2013-02-25 05:01:00,
2013-02-24 23:32:00,16.0,12.0,-100.00,SSW,193,1.0,4.0,83,0.00,,,0.00,0.000000,,2013-02-25 05:32:00,
2013-02-24 23:42:00,16.0,12.0,-100.00,SSW,193,1.0,4.0,83,0.00,,,0.00,0.000000,,2013-02-25 05:42:00,
2013-02-24 23:52:00,16.0,12.0,-100.00,SSW,193,1.0,4.0,83,0.00,,,0.00,0.000000,,2013-02-25 05:52:00,